Ballston Lake, New York
Current Conditions -  °F | °C
As of 1:51 PM on Saturday 25 Oct 2014 (Local Time) from KALB Reporting Station
Broken Clouds Broken Clouds  
Wind Chill: 60°   Ceiling: 6000
Heat Index: 60°   Visibility: 10mi
Dew Point: 45°   Wind: 5mph
Humidity: 57%   Direction: NA
Pressure: 29.68"   Gusts: NA
Location:  42.91°N, 73.87°W
Report Text: KALB 251751Z VRB04KT 10SM SCT035 BKN060 BKN200 16/07 A2968 RMK AO2 SLP052 T01560072 10167 20033 58039 $
Loading
Personal Weather Stations






























Interactive Weather Map
Tropical Storm Tracking
New forecast layout! Learn more

10-Day Weather Forecast

Advertisements
Track Severe Weather on mobile